createdAt,value
2022-12-15T00:02:47.766Z,2.50
2022-12-15T00:08:08.396Z,2.60
2022-12-15T00:13:30.677Z,2.50
2022-12-15T00:18:51.904Z,2.50
2022-12-15T00:24:12.365Z,2.60
2022-12-15T00:29:33.102Z,2.50
2022-12-15T00:34:54.202Z,2.60
2022-12-15T00:39:59.059Z,2.50
2022-12-15T00:45:01.373Z,2.50
2022-12-15T00:50:22.679Z,2.60
2022-12-15T00:55:43.425Z,2.60
2022-12-15T01:01:03.932Z,2.60
2022-12-15T01:06:26.738Z,2.50
2022-12-15T01:11:47.356Z,2.60
2022-12-15T01:17:08.360Z,2.50
2022-12-15T01:22:10.850Z,2.60
2022-12-15T01:27:14.402Z,2.60
2022-12-15T01:32:16.740Z,2.60
2022-12-15T01:37:18.856Z,2.60
2022-12-15T01:42:21.098Z,2.60
2022-12-15T01:47:25.446Z,2.60
2022-12-15T01:52:27.649Z,2.60
2022-12-15T01:57:32.548Z,2.60
2022-12-15T02:02:40.386Z,2.60
2022-12-15T02:07:42.887Z,2.70
2022-12-15T02:12:48.116Z,2.70
2022-12-15T02:18:02.154Z,2.70
2022-12-15T02:23:25.456Z,2.70
2022-12-15T02:28:46.261Z,2.70
2022-12-15T02:33:57.904Z,2.70
2022-12-15T02:39:00.015Z,2.80
2022-12-15T02:44:09.951Z,2.90
2022-12-15T02:49:24.276Z,2.90
2022-12-15T02:54:36.568Z,2.90
2022-12-15T02:59:45.293Z,2.90
2022-12-15T03:04:47.696Z,3.00
2022-12-15T03:09:49.803Z,3.00
2022-12-15T03:14:52.059Z,3.00
2022-12-15T03:19:54.350Z,3.00
2022-12-15T03:24:56.586Z,3.00
2022-12-15T03:29:58.819Z,3.00
2022-12-15T03:35:01.158Z,3.00
2022-12-15T03:40:03.511Z,3.00
2022-12-15T03:45:06.159Z,3.10
2022-12-15T03:50:09.376Z,3.10
2022-12-15T03:55:12.346Z,3.10
2022-12-15T04:00:15.721Z,3.20
2022-12-15T04:05:29.406Z,3.30
2022-12-15T04:10:34.905Z,3.50
2022-12-15T04:15:38.292Z,3.70
2022-12-15T04:20:41.244Z,3.80
2022-12-15T04:26:02.116Z,4.10
2022-12-15T04:31:23.036Z,4.00
2022-12-15T04:36:43.826Z,4.00
2022-12-15T04:42:04.402Z,4.00
2022-12-15T04:47:25.269Z,3.90
2022-12-15T04:52:46.727Z,3.70
2022-12-15T04:58:07.447Z,3.60
2022-12-15T05:03:28.140Z,3.50
2022-12-15T05:08:50.226Z,3.40
2022-12-15T05:14:11.200Z,3.40
2022-12-15T05:19:32.322Z,3.40
2022-12-15T05:24:52.916Z,3.30
2022-12-15T05:30:13.648Z,3.40
2022-12-15T05:35:15.893Z,3.40
2022-12-15T05:40:18.027Z,3.30
2022-12-15T05:45:20.149Z,3.30
2022-12-15T05:50:23.238Z,3.40
2022-12-15T05:55:25.387Z,3.40
2022-12-15T06:00:27.541Z,3.40
2022-12-15T06:05:29.874Z,3.40
2022-12-15T06:10:32.038Z,3.50
2022-12-15T06:15:34.147Z,3.40
2022-12-15T06:20:36.453Z,3.40
2022-12-15T06:25:38.638Z,3.40
2022-12-15T06:30:40.778Z,3.40
2022-12-15T06:35:42.914Z,3.40
2022-12-15T06:40:45.022Z,3.50
2022-12-15T06:45:51.517Z,3.50
2022-12-15T06:50:54.086Z,3.40
2022-12-15T06:56:00.668Z,3.40
2022-12-15T07:01:08.100Z,3.40
2022-12-15T07:06:12.431Z,3.50
2022-12-15T07:11:14.733Z,3.40
2022-12-15T07:16:17.247Z,3.60
2022-12-15T07:21:19.678Z,3.60
2022-12-15T07:26:22.004Z,3.70
2022-12-15T07:31:24.340Z,3.70
2022-12-15T07:36:27.711Z,3.70
2022-12-15T07:41:30.298Z,3.70
2022-12-15T07:46:32.580Z,3.80
2022-12-15T07:51:34.766Z,3.90
2022-12-15T07:56:39.311Z,4.00
2022-12-15T08:01:41.852Z,4.00
2022-12-15T08:06:44.176Z,4.00
2022-12-15T08:11:46.479Z,4.00
2022-12-15T08:16:48.911Z,4.10
2022-12-15T08:21:51.162Z,4.20
2022-12-15T08:26:53.311Z,4.20
2022-12-15T08:31:55.685Z,4.30
2022-12-15T08:36:57.833Z,4.30
2022-12-15T08:42:00.108Z,4.40
2022-12-15T08:47:02.394Z,4.40
2022-12-15T08:52:04.633Z,4.40
2022-12-15T08:57:06.822Z,4.50
2022-12-15T09:02:12.274Z,4.60
2022-12-15T09:07:15.582Z,4.60
2022-12-15T09:12:17.929Z,4.60
2022-12-15T09:17:20.178Z,4.60
2022-12-15T09:22:22.344Z,4.60
2022-12-15T09:27:24.506Z,4.70
2022-12-15T09:32:26.651Z,4.70
2022-12-15T09:37:31.082Z,4.80
2022-12-15T09:42:33.279Z,4.80
2022-12-15T09:47:45.418Z,4.80
2022-12-15T09:52:53.528Z,4.80
2022-12-15T09:57:59.729Z,4.80
2022-12-15T10:03:30.963Z,4.90
2022-12-15T10:09:02.563Z,4.90
2022-12-15T10:14:26.346Z,4.90
2022-12-15T10:19:42.784Z,4.90
2022-12-15T10:25:09.071Z,5.00
2022-12-15T10:30:11.289Z,5.00
2022-12-15T10:35:16.635Z,5.00
2022-12-15T10:40:29.824Z,5.00
2022-12-15T10:45:38.645Z,5.10
2022-12-15T10:50:40.778Z,5.10
2022-12-15T10:55:43.861Z,5.20
2022-12-15T11:01:14.749Z,5.20
2022-12-15T11:06:22.935Z,5.20
2022-12-15T11:12:04.067Z,5.10
2022-12-15T11:17:07.358Z,5.10
2022-12-15T11:22:30.117Z,5.20
2022-12-15T11:27:40.280Z,5.20
2022-12-15T11:32:47.003Z,5.30
2022-12-15T11:38:07.697Z,5.30
2022-12-15T11:43:18.683Z,5.30
2022-12-15T11:48:35.559Z,5.40
2022-12-15T11:54:14.872Z,5.50
2022-12-15T11:59:46.018Z,5.50
2022-12-15T12:05:03.334Z,5.50
2022-12-15T12:10:34.556Z,5.50
2022-12-15T12:16:00.081Z,5.50
2022-12-15T12:21:10.731Z,5.60
2022-12-15T12:26:22.614Z,5.60
2022-12-15T12:32:04.814Z,5.60
2022-12-15T12:37:33.972Z,5.60
2022-12-15T12:42:51.839Z,5.60
2022-12-15T12:47:57.833Z,5.60
2022-12-15T12:53:04.638Z,5.50
2022-12-15T12:58:35.906Z,5.50
2022-12-15T13:03:42.438Z,5.50
2022-12-15T13:08:55.899Z,5.50
2022-12-15T13:13:58.290Z,5.50
2022-12-15T13:19:07.088Z,5.50
2022-12-15T13:24:41.658Z,5.50
2022-12-15T13:30:15.989Z,5.50
2022-12-15T13:35:31.439Z,5.50
2022-12-15T13:40:36.674Z,5.50
2022-12-15T13:45:50.980Z,5.50
2022-12-15T13:51:03.842Z,5.60
2022-12-15T13:56:12.073Z,5.60
2022-12-15T14:01:30.119Z,5.60
2022-12-15T14:06:38.413Z,5.70
2022-12-15T14:11:58.367Z,5.70
2022-12-15T14:17:09.104Z,5.80
2022-12-15T14:22:28.142Z,5.80
2022-12-15T14:27:32.249Z,5.80
2022-12-15T14:32:35.456Z,5.80
2022-12-15T14:37:37.623Z,5.80
2022-12-15T14:42:41.413Z,5.80
2022-12-15T14:48:13.726Z,5.90
2022-12-15T14:53:20.087Z,5.90
2022-12-15T14:58:36.056Z,5.80
2022-12-15T15:03:40.919Z,5.90
2022-12-15T15:08:53.717Z,5.90
2022-12-15T15:14:08.976Z,5.90
2022-12-15T15:19:21.457Z,5.90
2022-12-15T15:24:29.695Z,5.80
2022-12-15T15:29:41.206Z,5.80
2022-12-15T15:34:45.134Z,5.80
2022-12-15T15:39:55.043Z,5.70
2022-12-15T15:44:57.835Z,5.70
2022-12-15T15:50:00.297Z,5.70
2022-12-15T15:55:02.397Z,5.70
2022-12-15T16:00:17.496Z,5.60
2022-12-15T16:05:21.074Z,5.60
2022-12-15T16:10:23.254Z,5.60
2022-12-15T16:15:27.917Z,5.60
2022-12-15T16:20:30.884Z,5.50
2022-12-15T16:25:48.425Z,5.40
2022-12-15T16:30:53.275Z,5.40
2022-12-15T16:35:55.574Z,5.40
2022-12-15T16:41:04.339Z,5.40
2022-12-15T16:46:06.792Z,5.30
2022-12-15T16:51:18.358Z,5.30
2022-12-15T16:56:20.893Z,5.30
2022-12-15T17:01:23.721Z,5.20
2022-12-15T17:06:26.094Z,5.20
2022-12-15T17:11:29.361Z,5.20
2022-12-15T17:16:31.508Z,5.20
2022-12-15T17:21:38.075Z,5.20
2022-12-15T17:26:41.175Z,5.20
2022-12-15T17:31:43.306Z,5.20
2022-12-15T17:36:45.454Z,5.20
2022-12-15T17:42:04.608Z,5.20
2022-12-15T17:47:08.397Z,5.10
2022-12-15T17:52:34.436Z,5.10
2022-12-15T17:57:37.125Z,5.10
2022-12-15T18:02:39.427Z,5.10
2022-12-15T18:07:41.667Z,5.10
2022-12-15T18:12:43.886Z,5.10
2022-12-15T18:17:46.026Z,5.00
2022-12-15T18:22:49.554Z,5.00
2022-12-15T18:27:55.617Z,5.10
2022-12-15T18:32:59.073Z,5.10
2022-12-15T18:38:01.185Z,5.20
2022-12-15T18:43:03.325Z,5.30
2022-12-15T18:48:24.594Z,5.30
2022-12-15T18:53:35.924Z,5.40
2022-12-15T18:58:42.297Z,5.40
2022-12-15T19:03:44.665Z,5.40
2022-12-15T19:08:47.028Z,5.40
2022-12-15T19:13:49.199Z,5.40
2022-12-15T19:19:15.404Z,5.40
2022-12-15T19:24:45.197Z,5.40
2022-12-15T19:29:48.238Z,5.40
2022-12-15T19:34:50.605Z,5.30
2022-12-15T19:39:54.391Z,5.20
2022-12-15T19:44:56.600Z,5.30
2022-12-15T19:49:58.767Z,5.30
2022-12-15T19:55:01.623Z,5.20
2022-12-15T20:00:17.222Z,5.30
2022-12-15T20:05:20.575Z,5.30
2022-12-15T20:10:31.892Z,5.30
2022-12-15T20:15:34.922Z,5.20
2022-12-15T20:20:37.570Z,5.00
2022-12-15T20:25:41.532Z,5.00
2022-12-15T20:30:44.395Z,4.90
2022-12-15T20:35:48.147Z,4.80
2022-12-15T20:40:51.289Z,4.70
2022-12-15T20:46:17.442Z,4.60
2022-12-15T20:51:30.096Z,4.50
2022-12-15T20:56:32.261Z,4.40
2022-12-15T21:01:35.705Z,4.20
2022-12-15T21:06:38.113Z,4.20
2022-12-15T21:11:40.816Z,4.20
2022-12-15T21:16:43.027Z,4.10
2022-12-15T21:21:51.734Z,4.00
2022-12-15T21:26:54.823Z,3.90
2022-12-15T21:31:57.374Z,3.80
2022-12-15T21:36:59.836Z,3.60
2022-12-15T21:42:06.260Z,3.60
2022-12-15T21:47:24.277Z,3.60
2022-12-15T21:52:27.455Z,3.60
2022-12-15T21:57:29.690Z,3.70
2022-12-15T22:02:31.950Z,3.60
2022-12-15T22:07:34.431Z,3.50
2022-12-15T22:12:37.107Z,3.40
2022-12-15T22:17:39.245Z,3.30
2022-12-15T22:22:41.465Z,3.20
2022-12-15T22:27:44.753Z,3.10
2022-12-15T22:32:47.345Z,2.90
2022-12-15T22:37:53.410Z,2.90
2022-12-15T22:42:58.070Z,2.80
2022-12-15T22:48:00.708Z,2.70
2022-12-15T22:53:02.983Z,2.80
2022-12-15T22:58:09.409Z,2.70
2022-12-15T23:03:11.884Z,2.60
2022-12-15T23:08:14.131Z,2.40
2022-12-15T23:13:16.321Z,2.30
2022-12-15T23:18:18.434Z,2.30
2022-12-15T23:23:20.579Z,2.20
2022-12-15T23:28:22.677Z,2.20
2022-12-15T23:33:27.939Z,2.10
2022-12-15T23:38:30.766Z,2.10
2022-12-15T23:43:34.409Z,2.00
2022-12-15T23:48:39.171Z,1.90
2022-12-15T23:53:41.873Z,1.90
2022-12-15T23:58:45.565Z,1.80
